Time;durP1;ratioP1;P1;durP2;ratioP2;P2;SDS_P1;SDS_P2;PMS_P1;PMS_P2;Temp;Humidity;BMP_temperature;BMP_pressure;BME280_temperature;BME280_humidity;BME280_pressure;Samples;Min_cycle;Max_cycle;Signal;HPM_P1;HPM_P2
2021/09/14 00:06:38;;;;;;;1999.90;999.90;;;;;;;15.21;76.95;101532.03;15818305;28;20105;-59
2021/09/14 00:14:11;;;;;;;1999.90;999.90;;;;;;;15.31;76.98;101533.59;15824657;28;20036;-58
2021/09/14 00:21:44;;;;;;;1999.90;999.90;;;;;;;15.37;77.37;101520.97;15817667;28;20047;-59
2021/09/14 00:29:18;;;;;;;1999.90;999.90;;;;;;;15.52;77.07;101523.13;15854312;28;20051;-59
2021/09/14 00:36:50;;;;;;;1999.90;999.90;;;;;;;15.56;77.14;101512.84;15805341;28;20042;-60
2021/09/14 00:44:26;;;;;;;1999.90;999.90;;;;;;;15.75;77.04;101508.69;15824307;28;20138;-58
2021/09/14 00:51:58;;;;;;;1999.90;999.90;;;;;;;15.55;76.60;101510.38;15820626;28;20115;-60
2021/09/14 00:59:32;;;;;;;1999.90;999.90;;;;;;;15.40;76.97;101511.84;15826491;28;20524;-60
2021/09/14 01:07:05;;;;;;;1999.90;999.90;;;;;;;15.62;76.56;101502.19;15827706;28;20071;-59
2021/09/14 01:14:39;;;;;;;1999.90;999.90;;;;;;;15.57;77.06;101503.22;15804535;28;20039;-59
2021/09/14 01:22:12;;;;;;;1999.90;999.90;;;;;;;15.49;76.75;101497.69;15823718;28;20044;-60
2021/09/14 01:37:38;;;;;;;1999.90;999.90;;;;;;;15.36;76.79;101510.09;15821442;28;20051;-60
2021/09/14 01:45:14;;;;;;;1999.90;999.90;;;;;;;15.28;76.50;101495.75;15844445;28;20043;-60
2021/09/14 01:52:48;;;;;;;1999.90;999.90;;;;;;;15.13;76.57;101498.41;15810413;28;20298;-60
2021/09/14 02:00:29;;;;;;;1999.90;999.90;;;;;;;15.19;76.51;101495.00;15797695;28;20051;-58
2021/09/14 02:08:43;;;;;;;1999.90;999.90;;;;;;;15.13;76.22;101496.41;15831499;28;20471;-59
2021/09/14 02:24:26;;;;;;;1999.90;999.90;;;;;;;14.83;75.78;101472.38;15824829;28;20104;-59
2021/09/14 03:03:32;;;;;;;1999.90;999.90;;;;;;;14.53;76.86;101463.19;15853766;28;20043;-57
2021/09/14 03:11:08;;;;;;;1999.90;999.90;;;;;;;14.35;76.74;101466.09;15830577;28;20038;-59
2021/09/14 03:18:46;;;;;;;1999.90;999.90;;;;;;;14.41;75.72;101464.75;15827624;28;20046;-60
2021/09/14 03:26:19;;;;;;;1999.90;999.90;;;;;;;14.22;76.48;101460.72;15851356;28;20043;-60
2021/09/14 03:34:21;;;;;;;1999.90;999.90;;;;;;;14.22;76.12;101461.56;15812585;28;20127;-60
2021/09/14 03:42:07;;;;;;;1999.90;999.90;;;;;;;14.08;76.15;101461.00;15824147;28;20410;-59
2021/09/14 03:49:41;;;;;;;1999.90;999.90;;;;;;;14.10;76.17;101455.84;15808538;28;20443;-59
2021/09/14 03:57:13;;;;;;;1999.90;999.90;;;;;;;13.84;76.83;101447.56;15833241;28;20047;-58
2021/09/14 04:05:03;;;;;;;1999.90;999.90;;;;;;;13.80;76.77;101441.00;15807694;28;20040;-60
2021/09/14 04:12:37;;;;;;;1999.90;999.90;;;;;;;13.81;76.42;101442.63;15789866;28;20108;-60
2021/09/14 04:20:13;;;;;;;1999.90;999.90;;;;;;;13.80;76.21;101446.59;15826969;28;20044;-58
2021/09/14 04:27:49;;;;;;;1999.90;999.90;;;;;;;13.78;76.48;101444.16;15829035;28;20032;-60
2021/09/14 04:35:23;;;;;;;1999.90;999.90;;;;;;;13.67;76.83;101445.69;15826885;28;20493;-60
2021/09/14 04:42:58;;;;;;;1999.90;999.90;;;;;;;13.62;76.82;101447.84;15822360;28;20473;-60
2021/09/14 04:50:31;;;;;;;1999.90;999.90;;;;;;;13.76;76.69;101454.88;15804045;28;20065;-59
2021/09/14 04:58:04;;;;;;;1999.90;999.90;;;;;;;13.72;76.87;101462.31;15808484;28;20103;-60
2021/09/14 05:05:38;;;;;;;1999.90;999.90;;;;;;;13.67;77.36;101456.91;15826138;28;20080;-60
2021/09/14 05:13:11;;;;;;;1999.90;999.90;;;;;;;13.81;76.71;101446.25;15808467;28;20059;-59
2021/09/14 05:20:46;;;;;;;;;;;;;;;14.11;76.60;101447.09;15822346;28;20047;-60
2021/09/14 05:28:19;;;;;;;1999.90;999.90;;;;;;;14.33;76.75;101451.56;15817506;28;20365;-58
2021/09/14 05:35:54;;;;;;;1999.90;999.90;;;;;;;14.72;76.66;101444.69;15842447;28;20048;-60
2021/09/14 05:43:29;;;;;;;1999.90;999.90;;;;;;;14.90;77.26;101436.94;15815521;28;20036;-59
2021/09/14 05:51:08;;;;;;;1999.90;999.90;;;;;;;15.06;77.77;101447.53;15858255;28;20094;-59
2021/09/14 05:59:00;;;;;;;;;;;;;;;15.23;78.69;101462.25;15797324;28;20085;-59
2021/09/14 06:06:36;;;;;;;1999.90;999.90;;;;;;;15.10;81.39;101452.09;15794838;28;20327;-59
2021/09/14 06:14:28;;;;;;;1999.90;999.90;;;;;;;15.56;80.52;101467.00;15813241;28;20588;-57
2021/09/14 06:22:22;;;;;;;1999.90;999.90;;;;;;;16.17;78.80;101472.72;15794521;28;20078;-59
2021/09/14 06:29:56;;;;;;;1999.90;999.90;;;;;;;16.62;77.81;101485.78;15831089;28;20090;-60
2021/09/14 06:37:30;;;;;;;1999.90;999.90;;;;;;;17.11;76.14;101489.31;15856305;28;20055;-57
2021/09/14 06:45:06;;;;;;;1999.90;999.90;;;;;;;17.56;73.42;101488.94;15854686;28;20603;-58
2021/09/14 06:53:06;;;;;;;1999.90;999.90;;;;;;;17.55;70.71;101490.13;15854741;28;20519;-58
2021/09/14 07:00:56;;;;;;;1999.90;999.90;;;;;;;18.36;67.63;101498.25;15871900;28;20047;-58
2021/09/14 07:08:37;;;;;;;1999.90;999.90;;;;;;;18.89;69.06;101491.03;15871724;28;20131;-58
2021/09/14 07:16:30;;;;;;;1999.90;999.90;;;;;;;19.51;67.13;101505.22;15871417;28;20092;-57
2021/09/14 07:24:07;;;;;;;1999.90;999.90;;;;;;;19.78;64.49;101501.28;15871165;28;20079;-61
2021/09/14 07:31:46;;;;;;;1999.90;999.90;;;;;;;20.03;62.69;101484.75;15869611;28;20493;-61
2021/09/14 07:39:23;;;;;;;1999.90;999.90;;;;;;;20.00;63.20;101496.00;15851555;28;20043;-60
2021/09/14 07:47:21;;;;;;;1999.90;999.90;;;;;;;21.04;60.38;101500.00;15851047;28;20059;-59
2021/09/14 07:55:18;;;;;;;1999.90;999.90;;;;;;;21.31;59.29;101497.13;15868735;28;20047;-62
2021/09/14 08:11:04;;;;;;;1999.90;999.90;;;;;;;21.77;57.72;101488.28;15867884;28;20066;-61
2021/09/14 08:18:40;;;;;;;1999.90;999.90;;;;;;;22.91;57.40;101486.31;15849690;28;20031;-61
2021/09/14 08:26:14;;;;;;;1999.90;999.90;;;;;;;22.39;57.55;101488.41;15867494;28;20039;-60
2021/09/14 08:33:54;;;;;;;1999.90;999.90;;;;;;;22.77;54.46;101499.22;15848556;28;20603;-60
2021/09/14 08:42:05;;;;;;;1999.90;999.90;;;;;;;22.52;56.31;101488.94;15866227;28;20074;-62
2021/09/14 08:49:44;;;;;;;1999.90;999.90;;;;;;;23.14;53.83;101489.69;15831255;28;20065;-61
2021/09/14 08:58:08;;;;;;;1999.90;999.90;;;;;;;24.06;53.36;101502.50;15852726;28;20035;-61
2021/09/14 09:05:47;;;;;;;1999.90;999.90;;;;;;;24.43;51.49;101499.25;15864899;28;20065;-60
2021/09/14 09:14:04;;;;;;;;;;;;;;;;;;;;;
2021/09/14 09:22:32;;;;;;;1999.90;999.90;;;;;;;24.06;51.71;101486.22;15863870;28;20146;-62
2021/09/14 09:30:26;;;;;;;1999.90;999.90;;;;;;;24.53;51.84;101484.16;15852400;28;20412;-59
2021/09/14 09:38:19;;;;;;;1999.90;999.90;;;;;;;24.62;51.66;101478.03;15864745;28;20040;-61
2021/09/14 09:46:06;;;;;;;1999.90;999.90;;;;;;;24.54;50.91;101482.13;15846336;28;20417;-62
2021/09/14 09:54:06;;;;;;;1999.90;999.90;;;;;;;25.11;49.61;101479.91;15840790;28;20036;-61
2021/09/14 10:02:06;;;;;;;1999.90;999.90;;;;;;;25.80;48.34;101476.28;15829855;28;20035;-60
2021/09/14 10:09:49;;;;;;;1999.90;999.90;;;;;;;26.54;46.14;101470.31;15846010;28;20044;-60
2021/09/14 10:17:23;;;;;;;1999.90;999.90;;;;;;;26.82;45.74;101470.00;15869408;28;20047;-62
2021/09/14 10:24:59;;;;;;;1999.90;999.90;;;;;;;27.35;45.80;101462.81;15874791;28;20073;-60
2021/09/14 10:32:40;;;;;;;1999.90;999.90;;;;;;;27.71;44.24;101463.09;15874412;28;20051;-61
2021/09/14 10:40:15;;;;;;;1999.90;999.90;;;;;;;27.50;43.87;101461.34;15873183;28;20074;-61
2021/09/14 10:47:49;;;;;;;1999.90;999.90;;;;;;;26.45;43.08;101445.06;15872553;28;20447;-61
2021/09/14 10:55:21;;;;;;;1999.90;999.90;;;;;;;28.19;40.79;101454.09;15872905;28;20393;-57
2021/09/14 11:02:57;;;;;;;1999.90;999.90;;;;;;;27.94;42.97;101445.13;15836952;28;20040;-61
2021/09/14 11:10:33;;;;;;;1999.90;999.90;;;;;;;27.28;44.56;101437.91;15871555;28;20515;-62
2021/09/14 11:18:07;;;;;;;1999.90;999.90;;;;;;;28.01;42.47;101444.19;15852793;28;20040;-61
2021/09/14 11:25:40;;;;;;;1999.90;999.90;;;;;;;28.05;41.66;101444.94;15851800;28;20044;-61
2021/09/14 11:33:14;;;;;;;1999.90;999.90;;;;;;;28.74;42.67;101426.81;15851433;28;20077;-62
2021/09/14 11:40:49;;;;;;;1999.90;999.90;;;;;;;29.08;41.64;101430.66;15851671;28;20047;-61
2021/09/14 11:48:25;;;;;;;1999.90;999.90;;;;;;;29.89;37.70;101419.28;15850662;28;20131;-61
2021/09/14 11:55:58;;;;;;;1999.90;999.90;;;;;;;29.43;38.58;101411.78;15868394;28;20051;-62
2021/09/14 12:03:39;;;;;;;1999.90;999.90;;;;;;;29.96;38.22;101416.22;15868400;28;20047;-61
2021/09/14 12:11:35;;;;;;;1999.90;999.90;;;;;;;30.77;37.66;101400.88;15867791;28;20054;-61
2021/09/14 12:19:28;;;;;;;1999.90;999.90;;;;;;;30.87;36.22;101390.31;15849180;28;20044;-60
2021/09/14 12:27:23;;;;;;;1999.90;999.90;;;;;;;32.07;34.42;101384.75;15833094;28;20078;-60
2021/09/14 12:34:57;;;;;;;1999.90;999.90;;;;;;;35.19;30.09;101389.53;15795167;28;20052;-60
2021/09/14 12:42:29;;;;;;;1999.90;999.90;;;;;;;32.29;32.83;101384.78;15814876;27;20044;-60
2021/09/14 12:50:04;;;;;;;1999.90;999.90;;;;;;;35.54;29.33;101387.03;15864926;28;20044;-61
2021/09/14 12:57:37;;;;;;;1999.90;999.90;;;;;;;34.65;29.70;101380.47;15864369;28;20085;-60
2021/09/14 13:05:12;;;;;;;1999.90;999.90;;;;;;;30.15;34.85;101377.13;15813455;28;20043;-60
2021/09/14 13:21:34;;;;;;;1999.90;999.90;;;;;;;33.09;32.55;101353.28;15822443;28;20063;-59
2021/09/14 13:29:27;;;;;;;1999.90;999.90;;;;;;;35.49;28.15;101350.75;15800396;28;20042;-60
2021/09/14 13:37:24;;;;;;;1999.90;999.90;;;;;;;32.76;32.00;101340.56;15844712;28;20058;-61
2021/09/14 13:46:13;;;;;;;1999.90;999.90;;;;;;;29.20;36.84;101335.97;15781785;28;20051;-61
2021/09/14 13:54:23;;;;;;;1999.90;999.90;;;;;;;27.12;41.06;101320.31;15840147;28;20504;-61
2021/09/14 14:01:55;;;;;;;1999.90;999.90;;;;;;;26.38;44.92;101319.28;15852272;28;20409;-61
2021/09/14 14:09:29;;;;;;;;;;;;;;;26.01;43.92;101302.91;15841137;28;20047;-61
2021/09/14 14:17:01;;;;;;;1999.90;999.90;;;;;;;25.42;46.18;101300.19;15854234;28;19920;-61
2021/09/14 14:24:35;;;;;;;1999.90;999.90;;;;;;;25.36;46.09;101290.47;15828052;28;20546;-61
2021/09/14 14:32:07;;;;;;;1999.90;999.90;;;;;;;25.55;46.00;101282.13;15832676;28;20126;-60
2021/09/14 14:39:41;;;;;;;;;;;;;;;24.93;47.35;101279.34;15824605;28;20673;-60
2021/09/14 14:47:13;;;;;;;1999.90;999.90;;;;;;;25.23;47.76;101265.28;15863140;28;19973;-60
2021/09/14 14:54:46;;;;;;;1999.90;999.90;;;;;;;24.83;48.26;101265.97;15825106;28;20048;-60
2021/09/14 15:02:19;;;;;;;1999.90;999.90;;;;;;;24.83;49.56;101260.25;15860819;27;20718;-60
2021/09/14 15:09:52;;;;;;;1999.90;999.90;;;;;;;25.09;48.79;101250.28;15870620;28;20515;-60
2021/09/14 15:17:25;;;;;;;1999.90;999.90;;;;;;;24.95;49.77;101254.84;15850246;28;20071;-60
2021/09/14 15:24:58;;;;;;;;;;;;;;;24.46;49.82;101253.13;15859037;28;20050;-61
2021/09/14 15:32:31;;;;;;;1999.90;999.90;;;;;;;24.21;49.76;101243.84;15846532;28;20438;-57
2021/09/14 15:40:06;;;;;;;1999.90;999.90;;;;;;;24.30;49.83;101247.06;15842719;28;20040;-59
2021/09/14 15:47:39;;;;;;;1999.90;999.90;;;;;;;24.36;50.23;101237.69;15804978;28;20044;-60
2021/09/14 15:55:13;;;;;;;1999.90;999.90;;;;;;;24.21;50.58;101226.75;15788699;28;20040;-60
2021/09/14 16:02:45;;;;;;;1999.90;999.90;;;;;;;23.82;51.08;101222.81;15831315;28;20101;-60
2021/09/14 16:10:19;;;;;;;1999.90;999.90;;;;;;;23.80;51.42;101225.28;15849521;28;20577;-60
2021/09/14 16:17:51;;;;;;;1999.90;999.90;;;;;;;23.73;52.42;101210.22;15869701;28;20043;-59
2021/09/14 16:25:26;;;;;;;1999.90;999.90;;;;;;;23.70;52.48;101216.75;15868881;28;20096;-60
2021/09/14 16:32:59;;;;;;;1999.90;999.90;;;;;;;23.42;53.27;101212.72;15867091;28;20048;-61
2021/09/14 16:40:34;;;;;;;1999.90;999.90;;;;;;;23.36;53.84;101214.34;15848115;28;20048;-61
2021/09/14 16:48:07;;;;;;;1999.90;999.90;;;;;;;23.19;53.91;101212.34;15867012;28;20067;-60
2021/09/14 16:55:41;;;;;;;1999.90;999.90;;;;;;;22.92;54.97;101214.75;15835753;28;20047;-58
2021/09/14 17:03:15;;;;;;;1999.90;999.90;;;;;;;23.12;55.96;101226.56;15849185;28;20501;-60
2021/09/14 17:10:49;;;;;;;1999.90;999.90;;;;;;;22.69;56.23;101221.63;15866620;28;20044;-57
2021/09/14 17:18:21;;;;;;;1999.90;999.90;;;;;;;22.80;57.19;101224.47;15847803;28;20039;-59
2021/09/14 17:25:55;;;;;;;1999.90;999.90;;;;;;;22.47;57.56;101217.13;15869532;28;20052;-60
2021/09/14 17:33:28;;;;;;;1999.90;999.90;;;;;;;22.04;58.20;101219.78;15877484;28;20082;-60
2021/09/14 17:41:01;;;;;;;1999.90;999.90;;;;;;;22.03;59.84;101229.53;15876793;28;20413;-59
2021/09/14 17:48:34;;;;;;;1999.90;999.90;;;;;;;22.06;59.79;101242.13;15857531;28;20092;-59
2021/09/14 17:56:07;;;;;;;1999.90;999.90;;;;;;;21.83;60.59;101239.56;15876204;28;20044;-57
2021/09/14 18:03:40;;;;;;;1999.90;999.90;;;;;;;21.43;61.76;101237.69;15857561;28;20842;-59
2021/09/14 18:11:14;;;;;;;;;;;;;;;21.52;61.88;101246.69;15854150;27;20551;-58
2021/09/14 18:18:46;;;;;;;1999.90;999.90;;;;;;;21.23;62.07;101235.09;15857420;28;19923;-59
2021/09/14 18:26:21;;;;;;;1999.90;999.90;;;;;;;21.04;62.72;101227.63;15865231;28;20043;-59
2021/09/14 18:33:53;;;;;;;1999.90;999.90;;;;;;;20.86;63.20;101223.84;15842385;28;20039;-59
2021/09/14 18:41:28;;;;;;;1999.90;999.90;;;;;;;20.72;63.87;101226.53;15849426;27;20400;-62
2021/09/14 18:49:00;;;;;;;1999.90;999.90;;;;;;;20.49;63.74;101232.38;15845769;28;20055;-58
2021/09/14 18:56:34;;;;;;;1999.90;999.90;;;;;;;20.51;63.65;101227.13;15860283;28;20097;-60
2021/09/14 19:04:06;;;;;;;1999.90;999.90;;;;;;;20.33;64.78;101226.09;15869772;28;20511;-59
2021/09/14 19:11:42;;;;;;;1999.90;999.90;;;;;;;20.28;64.51;101218.75;15851929;28;20051;-61
2021/09/14 19:19:15;;;;;;;1999.90;999.90;;;;;;;19.74;65.08;101211.59;15824611;28;20072;-60
2021/09/14 19:26:49;;;;;;;1999.90;999.90;;;;;;;19.71;65.98;101223.72;15815743;28;20437;-61
2021/09/14 19:34:21;;;;;;;1999.90;999.90;;;;;;;19.89;65.15;101219.06;15868498;28;20040;-58
2021/09/14 19:41:55;;;;;;;1999.90;999.90;;;;;;;19.55;65.56;101211.69;15834630;28;20046;-59
2021/09/14 19:49:28;;;;;;;1999.90;999.90;;;;;;;19.52;65.75;101203.97;15911013;27;20051;-59
2021/09/14 19:57:02;;;;;;;1999.90;999.90;;;;;;;19.40;65.71;101210.69;15874175;27;20052;-59
2021/09/14 20:04:34;;;;;;;1999.90;999.90;;;;;;;19.38;66.29;101210.22;15886395;27;20175;-58
2021/09/14 20:12:08;;;;;;;1999.90;999.90;;;;;;;19.23;66.52;101212.03;15913461;27;20499;-60
2021/09/14 20:19:40;;;;;;;1999.90;999.90;;;;;;;19.01;67.43;101195.91;15861549;27;20447;-60
2021/09/14 20:27:14;;;;;;;1999.90;999.90;;;;;;;18.94;67.48;101195.78;15913373;27;20492;-59
2021/09/14 20:34:47;;;;;;;1999.90;999.90;;;;;;;18.90;67.69;101189.28;15814545;28;20040;-60
2021/09/14 20:42:21;;;;;;;1999.90;999.90;;;;;;;18.73;68.17;101185.75;15861988;28;20040;-59
2021/09/14 20:49:53;;;;;;;1999.90;999.90;;;;;;;18.65;68.41;101177.53;15850499;28;20043;-58
2021/09/14 20:57:27;;;;;;;1999.90;999.90;;;;;;;18.63;68.33;101177.88;15807151;28;20040;-58
2021/09/14 21:05:00;;;;;;;1999.90;999.90;;;;;;;18.62;68.06;101173.41;15814126;28;20386;-61
2021/09/14 21:12:34;;;;;;;1999.90;999.90;;;;;;;18.57;68.27;101172.94;15838783;28;20143;-58
2021/09/14 21:20:14;;;;;;;1999.90;999.90;;;;;;;18.56;68.34;101169.28;15844456;28;20115;-59
2021/09/14 21:27:48;;;;;;;1999.90;999.90;;;;;;;18.54;68.44;101171.66;15839503;28;20493;-60
2021/09/14 21:35:20;;;;;;;1999.90;999.90;;;;;;;18.38;68.95;101163.31;15825476;28;20054;-57
2021/09/14 21:42:58;;;;;;;1999.90;999.90;;;;;;;18.53;68.63;101172.03;15843980;28;20131;-60
2021/09/14 21:50:33;;;;;;;1999.90;999.90;;;;;;;18.34;69.51;101162.44;15819364;28;20040;-60
2021/09/14 21:58:09;;;;;;;1999.90;999.90;;;;;;;18.34;69.78;101155.94;15847036;28;20139;-58
2021/09/14 22:05:41;;;;;;;1999.90;999.90;;;;;;;18.32;69.75;101153.50;15835313;28;20122;-58
2021/09/14 22:13:16;;;;;;;1999.90;999.90;;;;;;;18.31;69.99;101156.69;15868971;28;20044;-60
2021/09/14 22:20:51;;;;;;;1999.90;999.90;;;;;;;18.22;70.21;101153.28;15833474;28;20101;-60
2021/09/14 22:28:27;;;;;;;;;;;;;;;18.39;70.43;101153.63;15846967;28;20071;-59
2021/09/14 22:36:02;;;;;;;1999.90;999.90;;;;;;;18.52;69.84;101148.59;15842608;28;19919;-60
2021/09/14 22:43:36;;;;;;;1999.90;999.90;;;;;;;18.56;69.90;101143.84;15873341;28;20040;-59
2021/09/14 22:51:08;;;;;;;1999.90;999.90;;;;;;;18.34;70.63;101153.97;15824387;28;20096;-60
2021/09/14 22:58:42;;;;;;;1999.90;999.90;;;;;;;17.92;72.04;101136.16;15841005;28;20090;-60
2021/09/14 23:06:16;;;;;;;1999.90;999.90;;;;;;;17.71;72.70;101123.25;15851811;28;20043;-60
2021/09/14 23:13:54;;;;;;;1999.90;999.90;;;;;;;17.73;72.89;101126.53;15818061;28;20047;-58
2021/09/14 23:21:29;;;;;;;1999.90;999.90;;;;;;;18.05;72.21;101120.72;15817391;28;20093;-60
2021/09/14 23:29:06;;;;;;;1999.90;999.90;;;;;;;17.73;73.11;101117.25;15849764;28;20172;-59
2021/09/14 23:36:40;;;;;;;1999.90;999.90;;;;;;;17.96;72.14;101117.31;15861729;28;20527;-59
2021/09/14 23:44:14;;;;;;;1999.90;999.90;;;;;;;17.77;73.04;101104.03;15869054;28;20409;-57
2021/09/14 23:51:46;;;;;;;1999.90;999.90;;;;;;;17.74;73.01;101090.66;15833195;28;20105;-58
2021/09/14 23:59:20;;;;;;;1999.90;999.90;;;;;;;17.62;73.57;101085.97;15807730;28;20040;-58
